sensor_id;sensor_type;location;lat;lon;timestamp;pressure;altitude;pressure_sealevel;temperature;humidity
71504;BME280;59323;50.874;7.028;2023-03-01T00:01:31;102594.91;;;-1.49;74.54
71504;BME280;59323;50.874;7.028;2023-03-01T00:03:57;102598.63;;;-1.50;74.21
71504;BME280;59323;50.874;7.028;2023-03-01T00:06:23;102598.06;;;-1.52;74.41
71504;BME280;59323;50.874;7.028;2023-03-01T00:08:49;102589.97;;;-1.57;74.49
71504;BME280;59323;50.874;7.028;2023-03-01T00:11:36;102605.16;;;-1.57;74.81
71504;BME280;59323;50.874;7.028;2023-03-01T00:14:02;102605.38;;;-1.59;74.66
71504;BME280;59323;50.874;7.028;2023-03-01T00:16:38;102610.94;;;-1.61;74.63
71504;BME280;59323;50.874;7.028;2023-03-01T00:19:05;102607.47;;;-1.61;74.70
71504;BME280;59323;50.874;7.028;2023-03-01T00:21:31;102619.19;;;-1.62;74.56
71504;BME280;59323;50.874;7.028;2023-03-01T00:23:56;102605.28;;;-1.64;74.94
71504;BME280;59323;50.874;7.028;2023-03-01T00:26:23;102613.03;;;-1.63;74.97
71504;BME280;59323;50.874;7.028;2023-03-01T00:28:49;102617.56;;;-1.63;75.00
71504;BME280;59323;50.874;7.028;2023-03-01T00:31:17;102618.84;;;-1.66;74.65
71504;BME280;59323;50.874;7.028;2023-03-01T00:33:43;102606.09;;;-1.64;74.90
71504;BME280;59323;50.874;7.028;2023-03-01T00:36:09;102599.38;;;-1.66;74.69
71504;BME280;59323;50.874;7.028;2023-03-01T00:38:36;102599.28;;;-1.71;74.63
71504;BME280;59323;50.874;7.028;2023-03-01T00:41:06;102602.28;;;-1.68;74.58
71504;BME280;59323;50.874;7.028;2023-03-01T00:43:32;102600.91;;;-1.70;74.54
71504;BME280;59323;50.874;7.028;2023-03-01T00:46:05;102601.72;;;-1.70;74.97
71504;BME280;59323;50.874;7.028;2023-03-01T00:48:32;102595.00;;;-1.72;75.05
71504;BME280;59323;50.874;7.028;2023-03-01T00:50:57;102598.22;;;-1.70;75.05
71504;BME280;59323;50.874;7.028;2023-03-01T00:53:28;102598.56;;;-1.67;75.24
71504;BME280;59323;50.874;7.028;2023-03-01T00:55:56;102595.09;;;-1.67;74.42
71504;BME280;59323;50.874;7.028;2023-03-01T00:58:22;102597.75;;;-1.67;75.35
71504;BME280;59323;50.874;7.028;2023-03-01T01:00:47;102589.66;;;-1.72;75.08
71504;BME280;59323;50.874;7.028;2023-03-01T01:03:12;102595.56;;;-1.70;75.26
71504;BME280;59323;50.874;7.028;2023-03-01T01:05:38;102599.28;;;-1.71;75.53
71504;BME280;59323;50.874;7.028;2023-03-01T01:08:03;102594.19;;;-1.73;75.46
71504;BME280;59323;50.874;7.028;2023-03-01T01:10:28;102592.56;;;-1.74;75.82
71504;BME280;59323;50.874;7.028;2023-03-01T01:12:54;102592.81;;;-1.75;75.88
71504;BME280;59323;50.874;7.028;2023-03-01T01:15:19;102586.09;;;-1.78;75.84
71504;BME280;59323;50.874;7.028;2023-03-01T01:17:44;102581.81;;;-1.79;75.89
71504;BME280;59323;50.874;7.028;2023-03-01T01:20:10;102582.63;;;-1.78;76.22
71504;BME280;59323;50.874;7.028;2023-03-01T01:22:36;102567.34;;;-1.83;75.89
71504;BME280;59323;50.874;7.028;2023-03-01T01:25:01;102562.00;;;-1.83;76.11
71504;BME280;59323;50.874;7.028;2023-03-01T01:27:26;102562.00;;;-1.83;76.36
71504;BME280;59323;50.874;7.028;2023-03-01T01:29:55;102553.44;;;-1.85;76.61
71504;BME280;59323;50.874;7.028;2023-03-01T01:32:20;102556.56;;;-1.88;76.25
71504;BME280;59323;50.874;7.028;2023-03-01T01:34:45;102550.69;;;-1.90;77.00
71504;BME280;59323;50.874;7.028;2023-03-01T01:37:11;102556.47;;;-1.93;77.22
71504;BME280;59323;50.874;7.028;2023-03-01T01:39:37;102564.47;;;-1.93;77.30
71504;BME280;59323;50.874;7.028;2023-03-01T01:42:02;102558.56;;;-1.95;77.63
71504;BME280;59323;50.874;7.028;2023-03-01T01:44:28;102549.97;;;-1.97;77.37
71504;BME280;59323;50.874;7.028;2023-03-01T01:47:01;102538.50;;;-1.98;77.01
71504;BME280;59323;50.874;7.028;2023-03-01T01:49:49;102535.28;;;-2.00;77.29
71504;BME280;59323;50.874;7.028;2023-03-01T01:52:20;102545.34;;;-2.02;77.08
71504;BME280;59323;50.874;7.028;2023-03-01T01:57:29;102539.09;;;-2.07;77.72
71504;BME280;59323;50.874;7.028;2023-03-01T02:00:00;102531.81;;;-2.12;77.72
71504;BME280;59323;50.874;7.028;2023-03-01T02:02:28;102543.53;;;-2.13;78.02
71504;BME280;59323;50.874;7.028;2023-03-01T02:05:03;102530.44;;;-2.14;77.54
71504;BME280;59323;50.874;7.028;2023-03-01T02:07:37;102528.00;;;-2.16;78.33
71504;BME280;59323;50.874;7.028;2023-03-01T02:10:04;102533.81;;;-2.19;78.48
71504;BME280;59323;50.874;7.028;2023-03-01T02:12:30;102530.00;;;-2.23;78.10
71504;BME280;59323;50.874;7.028;2023-03-01T02:14:56;102522.25;;;-2.25;77.90
71504;BME280;59323;50.874;7.028;2023-03-01T02:17:21;102528.38;;;-2.24;78.06
71504;BME280;59323;50.874;7.028;2023-03-01T02:20:03;102528.63;;;-2.26;78.56
71504;BME280;59323;50.874;7.028;2023-03-01T02:22:33;102522.94;;;-2.29;77.87
71504;BME280;59323;50.874;7.028;2023-03-01T02:27:40;102514.63;;;-2.33;78.46
71504;BME280;59323;50.874;7.028;2023-03-01T02:30:11;102515.91;;;-2.35;78.92
71504;BME280;59323;50.874;7.028;2023-03-01T02:32:39;102518.69;;;-2.42;79.00
71504;BME280;59323;50.874;7.028;2023-03-01T02:35:09;102522.16;;;-2.41;78.87
71504;BME280;59323;50.874;7.028;2023-03-01T02:37:35;102513.59;;;-2.43;78.73
71504;BME280;59323;50.874;7.028;2023-03-01T02:40:04;102509.78;;;-2.47;79.04
71504;BME280;59323;50.874;7.028;2023-03-01T02:42:33;102510.25;;;-2.50;79.08
71504;BME280;59323;50.874;7.028;2023-03-01T02:45:01;102503.53;;;-2.53;79.38
71504;BME280;59323;50.874;7.028;2023-03-01T02:47:27;102513.59;;;-2.55;79.02
71504;BME280;59323;50.874;7.028;2023-03-01T02:49:52;102512.22;;;-2.58;78.86
71504;BME280;59323;50.874;7.028;2023-03-01T02:55:01;102513.94;;;-2.63;79.76
71504;BME280;59323;50.874;7.028;2023-03-01T02:57:28;102511.03;;;-2.62;79.23
71504;BME280;59323;50.874;7.028;2023-03-01T02:59:56;102506.16;;;-2.65;79.59
71504;BME280;59323;50.874;7.028;2023-03-01T03:02:25;102507.44;;;-2.67;79.97
71504;BME280;59323;50.874;7.028;2023-03-01T03:05:11;102495.19;;;-2.68;79.60
71504;BME280;59323;50.874;7.028;2023-03-01T03:07:39;102503.41;;;-2.70;80.03
71504;BME280;59323;50.874;7.028;2023-03-01T03:10:24;102497.97;;;-2.75;79.97
71504;BME280;59323;50.874;7.028;2023-03-01T03:12:51;102493.69;;;-2.76;79.82
71504;BME280;59323;50.874;7.028;2023-03-01T03:15:17;102498.19;;;-2.76;79.59
71504;BME280;59323;50.874;7.028;2023-03-01T03:17:45;102493.09;;;-2.78;79.85
71504;BME280;59323;50.874;7.028;2023-03-01T03:20:13;102484.56;;;-2.80;79.85
71504;BME280;59323;50.874;7.028;2023-03-01T03:22:47;102489.28;;;-2.82;80.22
71504;BME280;59323;50.874;7.028;2023-03-01T03:25:13;102479.56;;;-2.88;80.54
71504;BME280;59323;50.874;7.028;2023-03-01T03:27:40;102483.63;;;-2.85;80.30
71504;BME280;59323;50.874;7.028;2023-03-01T03:30:07;102492.66;;;-2.87;80.15
71504;BME280;59323;50.874;7.028;2023-03-01T03:32:37;102484.91;;;-2.88;79.92
71504;BME280;59323;50.874;7.028;2023-03-01T03:35:06;102482.69;;;-2.91;80.64
71504;BME280;59323;50.874;7.028;2023-03-01T03:37:41;102478.88;;;-2.95;80.33
71504;BME280;59323;50.874;7.028;2023-03-01T03:40:26;102479.34;;;-2.98;80.33
71504;BME280;59323;50.874;7.028;2023-03-01T03:42:52;102486.75;;;-3.00;80.59
71504;BME280;59323;50.874;7.028;2023-03-01T03:45:17;102484.53;;;-3.03;81.10
71504;BME280;59323;50.874;7.028;2023-03-01T03:47:43;102482.13;;;-3.05;81.27
71504;BME280;59323;50.874;7.028;2023-03-01T03:50:11;102477.84;;;-3.06;81.45
71504;BME280;59323;50.874;7.028;2023-03-01T03:52:36;102483.63;;;-3.09;80.89
71504;BME280;59323;50.874;7.028;2023-03-01T03:55:02;102483.63;;;-3.09;81.27
71504;BME280;59323;50.874;7.028;2023-03-01T03:57:28;102472.63;;;-3.12;80.82
71504;BME280;59323;50.874;7.028;2023-03-01T03:59:53;102461.66;;;-3.16;81.59
71504;BME280;59323;50.874;7.028;2023-03-01T04:02:24;102457.13;;;-3.15;80.81
71504;BME280;59323;50.874;7.028;2023-03-01T04:04:50;102466.16;;;-3.16;81.40
71504;BME280;59323;50.874;7.028;2023-03-01T04:07:16;102458.41;;;-3.18;81.24
71504;BME280;59323;50.874;7.028;2023-03-01T04:09:42;102454.13;;;-3.19;81.11
71504;BME280;59323;50.874;7.028;2023-03-01T04:12:08;102454.34;;;-3.21;80.95
71504;BME280;59323;50.874;7.028;2023-03-01T04:14:34;102446.03;;;-3.24;81.17
71504;BME280;59323;50.874;7.028;2023-03-01T04:16:59;102443.81;;;-3.27;81.52
71504;BME280;59323;50.874;7.028;2023-03-01T04:19:24;102450.41;;;-3.30;81.59
71504;BME280;59323;50.874;7.028;2023-03-01T04:21:49;102454.09;;;-3.31;81.91
71504;BME280;59323;50.874;7.028;2023-03-01T04:24:15;102449.81;;;-3.32;81.74
71504;BME280;59323;50.874;7.028;2023-03-01T04:26:40;102446.00;;;-3.36;81.57
71504;BME280;59323;50.874;7.028;2023-03-01T04:29:05;102451.31;;;-3.36;82.04
71504;BME280;59323;50.874;7.028;2023-03-01T04:31:31;102449.69;;;-3.37;81.95
71504;BME280;59323;50.874;7.028;2023-03-01T04:33:56;102441.13;;;-3.39;81.90
71504;BME280;59323;50.874;7.028;2023-03-01T04:36:24;102447.50;;;-3.40;82.04
71504;BME280;59323;50.874;7.028;2023-03-01T04:38:50;102449.56;;;-3.42;81.79
71504;BME280;59323;50.874;7.028;2023-03-01T04:41:18;102446.19;;;-3.49;81.87
71504;BME280;59323;50.874;7.028;2023-03-01T04:43:44;102455.34;;;-3.45;82.36
71504;BME280;59323;50.874;7.028;2023-03-01T04:46:15;102457.41;;;-3.47;82.12
71504;BME280;59323;50.874;7.028;2023-03-01T04:48:42;102446.19;;;-3.49;82.45
71504;BME280;59323;50.874;7.028;2023-03-01T04:51:08;102441.56;;;-3.54;82.03
71504;BME280;59323;50.874;7.028;2023-03-01T04:53:34;102436.72;;;-3.57;82.24
71504;BME280;59323;50.874;7.028;2023-03-01T04:56:03;102436.50;;;-3.55;82.58
71504;BME280;59323;50.874;7.028;2023-03-01T04:58:28;102433.25;;;-3.57;82.96
71504;BME280;59323;50.874;7.028;2023-03-01T05:00:54;102440.06;;;-3.61;82.84
71504;BME280;59323;50.874;7.028;2023-03-01T05:03:20;102446.19;;;-3.61;82.35
71504;BME280;59323;50.874;7.028;2023-03-01T05:05:49;102451.13;;;-3.64;82.86
71504;BME280;59323;50.874;7.028;2023-03-01T05:08:15;102448.69;;;-3.66;83.05
71504;BME280;59323;50.874;7.028;2023-03-01T05:10:49;102439.34;;;-3.68;82.76
71504;BME280;59323;50.874;7.028;2023-03-01T05:13:15;102439.56;;;-3.70;82.89
71504;BME280;59323;50.874;7.028;2023-03-01T05:15:56;102442.91;;;-3.74;82.89
71504;BME280;59323;50.874;7.028;2023-03-01T05:18:23;102450.66;;;-3.73;83.19
71504;BME280;59323;50.874;7.028;2023-03-01T05:21:13;102446.59;;;-3.75;83.53
71504;BME280;59323;50.874;7.028;2023-03-01T05:23:37;102444.16;;;-3.77;82.90
71504;BME280;59323;50.874;7.028;2023-03-01T05:26:04;102447.06;;;-3.78;83.55
71504;BME280;59323;50.874;7.028;2023-03-01T05:28:30;102445.44;;;-3.79;83.10
71504;BME280;59323;50.874;7.028;2023-03-01T05:30:56;102450.16;;;-3.81;83.19
71504;BME280;59323;50.874;7.028;2023-03-01T05:33:21;102447.72;;;-3.83;83.59
71504;BME280;59323;50.874;7.028;2023-03-01T05:35:48;102447.94;;;-3.85;83.71
71504;BME280;59323;50.874;7.028;2023-03-01T05:38:14;102442.28;;;-3.88;83.28
71504;BME280;59323;50.874;7.028;2023-03-01T05:40:44;102443.50;;;-3.91;83.23
71504;BME280;59323;50.874;7.028;2023-03-01T05:43:11;102446.41;;;-3.92;83.76
71504;BME280;59323;50.874;7.028;2023-03-01T05:45:38;102442.94;;;-3.93;84.12
71504;BME280;59323;50.874;7.028;2023-03-01T05:48:04;102446.03;;;-3.96;83.98
71504;BME280;59323;50.874;7.028;2023-03-01T05:50:34;102448.09;;;-3.98;84.29
71504;BME280;59323;50.874;7.028;2023-03-01T05:55:28;102451.22;;;-4.01;84.16
71504;BME280;59323;50.874;7.028;2023-03-01T05:57:54;102444.28;;;-4.02;84.20
71504;BME280;59323;50.874;7.028;2023-03-01T06:00:21;102448.78;;;-4.02;83.92
71504;BME280;59323;50.874;7.028;2023-03-01T06:02:50;102451.66;;;-4.04;84.29
71504;BME280;59323;50.874;7.028;2023-03-01T06:05:17;102449.00;;;-4.04;84.64
71504;BME280;59323;50.874;7.028;2023-03-01T06:07:42;102447.59;;;-4.06;83.38
71504;BME280;59323;50.874;7.028;2023-03-01T06:10:10;102444.16;;;-4.07;84.47
71504;BME280;59323;50.874;7.028;2023-03-01T06:12:37;102440.69;;;-4.07;85.06
71504;BME280;59323;50.874;7.028;2023-03-01T06:15:04;102431.31;;;-4.10;84.54
71504;BME280;59323;50.874;7.028;2023-03-01T06:17:31;102431.31;;;-4.10;84.13
71504;BME280;59323;50.874;7.028;2023-03-01T06:19:57;102427.84;;;-4.10;85.07
71504;BME280;59323;50.874;7.028;2023-03-01T06:22:22;102437.06;;;-4.13;84.64
71504;BME280;59323;50.874;7.028;2023-03-01T06:24:48;102422.06;;;-4.19;84.72
71504;BME280;59323;50.874;7.028;2023-03-01T06:27:13;102433.03;;;-4.16;84.91
71504;BME280;59323;50.874;7.028;2023-03-01T06:29:38;102434.06;;;-4.17;84.99
71504;BME280;59323;50.874;7.028;2023-03-01T06:32:04;102438.34;;;-4.16;84.77
71504;BME280;59323;50.874;7.028;2023-03-01T06:34:30;102438.56;;;-4.17;84.43
71504;BME280;59323;50.874;7.028;2023-03-01T06:36:56;102437.53;;;-4.16;85.17
71504;BME280;59323;50.874;7.028;2023-03-01T06:39:21;102435.09;;;-4.18;84.48
71504;BME280;59323;50.874;7.028;2023-03-01T06:41:46;102434.06;;;-4.17;84.90
71504;BME280;59323;50.874;7.028;2023-03-01T06:44:14;102429.56;;;-4.16;85.00
71504;BME280;59323;50.874;7.028;2023-03-01T06:46:40;102423.44;;;-4.17;85.02
71504;BME280;59323;50.874;7.028;2023-03-01T06:49:05;102425.66;;;-4.13;85.60
71504;BME280;59323;50.874;7.028;2023-03-01T06:51:35;102425.88;;;-4.15;85.51
71504;BME280;59323;50.874;7.028;2023-03-01T06:54:00;102433.16;;;-4.10;85.13
71504;BME280;59323;50.874;7.028;2023-03-01T06:56:26;102429.69;;;-4.11;84.79
71504;BME280;59323;50.874;7.028;2023-03-01T06:58:51;102438.03;;;-4.07;85.25
71504;BME280;59323;50.874;7.028;2023-03-01T07:01:16;102443.09;;;-4.06;85.59
71504;BME280;59323;50.874;7.028;2023-03-01T07:03:42;102446.34;;;-4.04;85.01
71504;BME280;59323;50.874;7.028;2023-03-01T07:06:09;102433.53;;;-4.07;84.95
71504;BME280;59323;50.874;7.028;2023-03-01T07:08:34;102444.06;;;-4.00;85.00
71504;BME280;59323;50.874;7.028;2023-03-01T07:11:00;102449.28;;;-3.94;85.20
71504;BME280;59323;50.874;7.028;2023-03-01T07:13:27;102441.84;;;-3.85;85.94
71504;BME280;59323;50.874;7.028;2023-03-01T07:15:53;102430.22;;;-3.72;85.89
71504;BME280;59323;50.874;7.028;2023-03-01T07:18:18;102430.25;;;-3.61;86.03
71504;BME280;59323;50.874;7.028;2023-03-01T07:20:43;102419.53;;;-3.42;85.50
71504;BME280;59323;50.874;7.028;2023-03-01T07:23:09;102419.66;;;-3.26;85.87
71504;BME280;59323;50.874;7.028;2023-03-01T07:25:34;102420.16;;;-3.05;85.91
71504;BME280;59323;50.874;7.028;2023-03-01T07:28:00;102417.38;;;-2.87;85.58
71504;BME280;59323;50.874;7.028;2023-03-01T07:30:25;102417.34;;;-2.64;86.47
71504;BME280;59323;50.874;7.028;2023-03-01T07:32:56;102423.09;;;-2.43;86.11
71504;BME280;59323;50.874;7.028;2023-03-01T07:35:23;102425.13;;;-2.22;85.32
71504;BME280;59323;50.874;7.028;2023-03-01T07:37:49;102422.75;;;-2.07;84.42
71504;BME280;59323;50.874;7.028;2023-03-01T07:40:15;102422.41;;;-1.82;83.85
71504;BME280;59323;50.874;7.028;2023-03-01T07:42:40;102419.13;;;-1.55;83.26
71504;BME280;59323;50.874;7.028;2023-03-01T07:45:06;102425.78;;;-1.24;81.88
71504;BME280;59323;50.874;7.028;2023-03-01T07:47:32;102425.75;;;-0.91;82.24
71504;BME280;59323;50.874;7.028;2023-03-01T07:49:57;102420.34;;;-0.57;81.15
71504;BME280;59323;50.874;7.028;2023-03-01T07:52:23;102431.50;;;-0.17;79.14
71504;BME280;59323;50.874;7.028;2023-03-01T07:54:48;102413.16;;;0.14;76.95
71504;BME280;59323;50.874;7.028;2023-03-01T07:57:14;102419.38;;;0.51;75.47
71504;BME280;59323;50.874;7.028;2023-03-01T07:59:39;102408.19;;;0.91;73.72
71504;BME280;59323;50.874;7.028;2023-03-01T08:02:05;102408.88;;;1.19;71.19
71504;BME280;59323;50.874;7.028;2023-03-01T08:04:31;102405.56;;;1.49;71.50
71504;BME280;59323;50.874;7.028;2023-03-01T08:06:57;102404.84;;;1.74;67.63
71504;BME280;59323;50.874;7.028;2023-03-01T08:09:24;102401.66;;;1.92;65.88
71504;BME280;59323;50.874;7.028;2023-03-01T08:11:49;102410.56;;;2.08;64.93
71504;BME280;59323;50.874;7.028;2023-03-01T08:14:14;102404.97;;;2.19;64.06
71504;BME280;59323;50.874;7.028;2023-03-01T08:16:40;102407.38;;;2.41;63.68
71504;BME280;59323;50.874;7.028;2023-03-01T08:19:06;102403.91;;;2.56;63.30
71504;BME280;59323;50.874;7.028;2023-03-01T08:21:32;102400.13;;;2.82;62.87
71504;BME280;59323;50.874;7.028;2023-03-01T08:24:03;102402.53;;;2.99;61.85
71504;BME280;59323;50.874;7.028;2023-03-01T08:26:28;102404.91;;;3.16;60.94
71504;BME280;59323;50.874;7.028;2023-03-01T08:28:54;102402.16;;;3.36;59.00
71504;BME280;59323;50.874;7.028;2023-03-01T08:31:22;102398.69;;;3.31;59.75
71504;BME280;59323;50.874;7.028;2023-03-01T08:33:50;102406.69;;;3.46;59.43
71504;BME280;59323;50.874;7.028;2023-03-01T08:36:21;102396.34;;;3.73;59.99
71504;BME280;59323;50.874;7.028;2023-03-01T08:38:46;102392.47;;;4.00;59.14
71504;BME280;59323;50.874;7.028;2023-03-01T08:41:12;102390.91;;;4.28;58.85
71504;BME280;59323;50.874;7.028;2023-03-01T08:43:40;102401.97;;;4.60;58.29
71504;BME280;59323;50.874;7.028;2023-03-01T08:46:05;102397.41;;;4.61;55.35
71504;BME280;59323;50.874;7.028;2023-03-01T08:48:31;102402.50;;;4.62;54.87
71504;BME280;59323;50.874;7.028;2023-03-01T08:50:56;102396.69;;;4.79;55.82
71504;BME280;59323;50.874;7.028;2023-03-01T08:53:22;102396.31;;;4.91;54.11
71504;BME280;59323;50.874;7.028;2023-03-01T08:55:47;102399.75;;;4.96;54.46
71504;BME280;59323;50.874;7.028;2023-03-01T08:58:13;102398.69;;;5.21;54.62
71504;BME280;59323;50.874;7.028;2023-03-01T09:00:38;102395.16;;;5.26;54.08
71504;BME280;59323;50.874;7.028;2023-03-01T09:03:05;102399.97;;;5.29;51.93
71504;BME280;59323;50.874;7.028;2023-03-01T09:05:33;102398.16;;;5.19;51.88
71504;BME280;59323;50.874;7.028;2023-03-01T09:07:59;102392.53;;;5.16;53.25
71504;BME280;59323;50.874;7.028;2023-03-01T09:10:24;102392.06;;;5.08;51.89
71504;BME280;59323;50.874;7.028;2023-03-01T09:12:51;102389.41;;;5.32;52.18
71504;BME280;59323;50.874;7.028;2023-03-01T09:15:16;102386.19;;;5.30;50.70
71504;BME280;59323;50.874;7.028;2023-03-01T09:17:42;102377.75;;;5.13;50.74
71504;BME280;59323;50.874;7.028;2023-03-01T09:20:08;102375.53;;;5.20;51.44
71504;BME280;59323;50.874;7.028;2023-03-01T09:22:33;102369.03;;;5.45;52.66
71504;BME280;59323;50.874;7.028;2023-03-01T09:25:00;102363.38;;;5.65;51.48
71504;BME280;59323;50.874;7.028;2023-03-01T09:27:28;102375.75;;;5.66;51.09
71504;BME280;59323;50.874;7.028;2023-03-01T09:29:54;102372.81;;;5.44;50.65
71504;BME280;59323;50.874;7.028;2023-03-01T09:32:21;102370.03;;;5.30;51.15
71504;BME280;59323;50.874;7.028;2023-03-01T09:34:46;102365.50;;;5.26;51.41
71504;BME280;59323;50.874;7.028;2023-03-01T09:37:30;102360.22;;;5.39;49.51
71504;BME280;59323;50.874;7.028;2023-03-01T09:40:01;102361.59;;;5.37;49.56
71504;BME280;59323;50.874;7.028;2023-03-01T09:42:29;102365.16;;;5.32;50.04
71504;BME280;59323;50.874;7.028;2023-03-01T09:45:11;102366.78;;;5.52;50.77
71504;BME280;59323;50.874;7.028;2023-03-01T09:47:41;102365.38;;;5.12;49.58
71504;BME280;59323;50.874;7.028;2023-03-01T09:50:13;102368.25;;;5.21;50.66
71504;BME280;59323;50.874;7.028;2023-03-01T09:53:11;102353.66;;;4.98;50.12
71504;BME280;59323;50.874;7.028;2023-03-01T09:55:48;102346.28;;;4.85;50.26
71504;BME280;59323;50.874;7.028;2023-03-01T09:58:59;102339.13;;;4.99;50.82
71504;BME280;59323;50.874;7.028;2023-03-01T10:01:38;102354.28;;;5.14;50.47
71504;BME280;59323;50.874;7.028;2023-03-01T10:06:34;102339.47;;;4.92;50.48
71504;BME280;59323;50.874;7.028;2023-03-01T10:09:10;102338.06;;;5.19;50.84
71504;BME280;59323;50.874;7.028;2023-03-01T10:11:45;102345.59;;;5.22;49.97
71504;BME280;59323;50.874;7.028;2023-03-01T10:14:30;102330.69;;;5.29;48.77
71504;BME280;59323;50.874;7.028;2023-03-01T10:17:28;102335.50;;;5.51;50.29
71504;BME280;59323;50.874;7.028;2023-03-01T10:20:00;102328.38;;;5.60;50.23
71504;BME280;59323;50.874;7.028;2023-03-01T10:22:36;102317.38;;;5.57;50.80
71504;BME280;59323;50.874;7.028;2023-03-01T10:25:03;102318.69;;;5.78;49.84
71504;BME280;59323;50.874;7.028;2023-03-01T10:30:49;102309.84;;;5.72;47.89
71504;BME280;59323;50.874;7.028;2023-03-01T10:33:22;102299.59;;;5.74;48.38
71504;BME280;59323;50.874;7.028;2023-03-01T10:35:48;102299.97;;;5.87;48.68
71504;BME280;59323;50.874;7.028;2023-03-01T10:38:18;102303.75;;;5.86;47.98
71504;BME280;59323;50.874;7.028;2023-03-01T10:41:18;102297.59;;;5.80;48.16
71504;BME280;59323;50.874;7.028;2023-03-01T10:43:49;102305.91;;;5.84;48.52
71504;BME280;59323;50.874;7.028;2023-03-01T10:46:29;102306.91;;;5.93;48.16
71504;BME280;59323;50.874;7.028;2023-03-01T10:49:21;102307.75;;;6.07;47.15
71504;BME280;59323;50.874;7.028;2023-03-01T10:51:48;102301.13;;;5.99;47.32
71504;BME280;59323;50.874;7.028;2023-03-01T10:54:28;102296.97;;;6.07;47.41
71504;BME280;59323;50.874;7.028;2023-03-01T10:56:56;102294.97;;;6.13;47.21
71504;BME280;59323;50.874;7.028;2023-03-01T10:59:32;102279.41;;;6.23;47.16
71504;BME280;59323;50.874;7.028;2023-03-01T11:04:34;102265.44;;;6.35;46.92
71504;BME280;59323;50.874;7.028;2023-03-01T11:07:01;102259.66;;;6.42;46.87
71504;BME280;59323;50.874;7.028;2023-03-01T11:09:31;102255.09;;;6.56;46.88
71504;BME280;59323;50.874;7.028;2023-03-01T11:12:02;102252.47;;;6.64;46.36
71504;BME280;59323;50.874;7.028;2023-03-01T11:14:38;102254.38;;;6.64;45.45
71504;BME280;59323;50.874;7.028;2023-03-01T11:17:21;102244.06;;;6.66;45.37
71504;BME280;59323;50.874;7.028;2023-03-01T11:20:20;102231.38;;;6.66;44.81
71504;BME280;59323;50.874;7.028;2023-03-01T11:25:20;102223.78;;;6.68;45.27
71504;BME280;59323;50.874;7.028;2023-03-01T11:27:48;102226.28;;;6.65;46.41
71504;BME280;59323;50.874;7.028;2023-03-01T11:32:52;102228.78;;;6.61;44.85
71504;BME280;59323;50.874;7.028;2023-03-01T11:35:22;102227.78;;;6.57;45.42
71504;BME280;59323;50.874;7.028;2023-03-01T11:49:09;102202.75;;;6.65;44.94
71504;BME280;59323;50.874;7.028;2023-03-01T11:52:00;102212.06;;;6.59;45.04
71504;BME280;59323;50.874;7.028;2023-03-01T12:00:05;102172.16;;;6.56;45.61
71504;BME280;59323;50.874;7.028;2023-03-01T12:08:39;102163.84;;;6.66;44.21
71504;BME280;59323;50.874;7.028;2023-03-01T12:22:35;102145.00;;;7.25;43.25
71504;BME280;59323;50.874;7.028;2023-03-01T12:30:25;102143.31;;;7.60;44.09
71504;BME280;59323;50.874;7.028;2023-03-01T12:33:05;102146.31;;;7.58;43.65
71504;BME280;59323;50.874;7.028;2023-03-01T12:49:33;102110.19;;;8.25;41.40
71504;BME280;59323;50.874;7.028;2023-03-01T12:52:03;102115.44;;;8.30;40.96
71504;BME280;59323;50.874;7.028;2023-03-01T12:54:36;102113.44;;;8.36;40.70
71504;BME280;59323;50.874;7.028;2023-03-01T12:57:26;102111.25;;;8.46;40.13
71504;BME280;59323;50.874;7.028;2023-03-01T13:00:17;102109.34;;;8.47;39.87
71504;BME280;59323;50.874;7.028;2023-03-01T13:02:56;102096.75;;;8.51;39.51
71504;BME280;59323;50.874;7.028;2023-03-01T13:08:35;102088.31;;;8.52;40.29
71504;BME280;59323;50.874;7.028;2023-03-01T13:11:06;102081.78;;;8.62;38.68
71504;BME280;59323;50.874;7.028;2023-03-01T13:13:37;102075.09;;;8.68;39.46
71504;BME280;59323;50.874;7.028;2023-03-01T13:19:22;102083.22;;;8.94;38.39
71504;BME280;59323;50.874;7.028;2023-03-01T13:21:49;102079.38;;;8.95;37.65
71504;BME280;59323;50.874;7.028;2023-03-01T13:24:35;102079.56;;;8.90;37.35
71504;BME280;59323;50.874;7.028;2023-03-01T13:27:21;102066.16;;;8.76;38.44
71504;BME280;59323;50.874;7.028;2023-03-01T13:29:52;102075.88;;;8.86;36.95
71504;BME280;59323;50.874;7.028;2023-03-01T13:35:03;102069.50;;;8.90;36.72
71504;BME280;59323;50.874;7.028;2023-03-01T13:37:50;102069.34;;;8.78;38.33
71504;BME280;59323;50.874;7.028;2023-03-01T13:43:22;102059.78;;;8.81;38.41
71504;BME280;59323;50.874;7.028;2023-03-01T13:45:48;102061.22;;;8.87;37.36
71504;BME280;59323;50.874;7.028;2023-03-01T13:48:22;102053.88;;;8.79;37.67
71504;BME280;59323;50.874;7.028;2023-03-01T13:50:54;102045.91;;;8.82;38.48
71504;BME280;59323;50.874;7.028;2023-03-01T13:53:25;102046.69;;;8.92;38.85
71504;BME280;59323;50.874;7.028;2023-03-01T13:55:55;102034.56;;;9.06;37.84
71504;BME280;59323;50.874;7.028;2023-03-01T13:58:30;102032.00;;;9.10;37.85
71504;BME280;59323;50.874;7.028;2023-03-01T14:01:07;102027.25;;;8.98;38.63
71504;BME280;59323;50.874;7.028;2023-03-01T14:03:40;102037.91;;;9.03;37.63
71504;BME280;59323;50.874;7.028;2023-03-01T14:06:19;102038.06;;;9.07;37.68
71504;BME280;59323;50.874;7.028;2023-03-01T14:08:47;102030.09;;;9.02;39.51
71504;BME280;59323;50.874;7.028;2023-03-01T14:11:52;102045.72;;;9.05;38.81
71504;BME280;59323;50.874;7.028;2023-03-01T14:14:42;102038.88;;;8.99;38.37
71504;BME280;59323;50.874;7.028;2023-03-01T14:19:34;102019.44;;;8.97;38.53
71504;BME280;59323;50.874;7.028;2023-03-01T14:27:16;102013.22;;;8.96;40.38
71504;BME280;59323;50.874;7.028;2023-03-01T14:29:58;101991.19;;;8.98;41.05
71504;BME280;59323;50.874;7.028;2023-03-01T14:32:26;101989.25;;;9.07;39.67
71504;BME280;59323;50.874;7.028;2023-03-01T14:34:51;101983.72;;;8.95;41.09
71504;BME280;59323;50.874;7.028;2023-03-01T14:37:26;101990.22;;;9.02;40.31
71504;BME280;59323;50.874;7.028;2023-03-01T14:39:53;101983.38;;;9.05;39.80
71504;BME280;59323;50.874;7.028;2023-03-01T14:42:20;101979.88;;;8.96;39.93
71504;BME280;59323;50.874;7.028;2023-03-01T14:44:53;101970.78;;;9.00;39.02